createdAt,value
2023-03-31T00:01:41.989Z,99934.16
2023-03-31T00:04:46.467Z,99936.97
2023-03-31T00:07:54.738Z,99930.91
2023-03-31T00:11:00.553Z,99927.28
2023-03-31T00:14:03.383Z,99927.03
2023-03-31T00:17:05.952Z,99929.34
2023-03-31T00:20:12.310Z,99935.44
2023-03-31T00:23:16.572Z,99920.22
2023-03-31T00:26:19.164Z,99925.09
2023-03-31T00:29:21.758Z,99924.38
2023-03-31T00:32:24.422Z,99914.97
2023-03-31T00:35:27.149Z,99908.31
2023-03-31T00:38:31.185Z,99899.59
2023-03-31T00:41:33.853Z,99904.69
2023-03-31T00:44:40.815Z,99893.38
2023-03-31T00:47:45.727Z,99895.28
2023-03-31T00:50:52.431Z,99890.69
2023-03-31T00:54:00.692Z,99883.56
2023-03-31T00:57:06.706Z,99876.44
2023-03-31T01:00:14.474Z,99876.94
2023-03-31T01:03:18.427Z,99870.59
2023-03-31T01:06:21.181Z,99864.78
2023-03-31T01:09:25.970Z,99852.63
2023-03-31T01:12:29.014Z,99851.16
2023-03-31T01:15:31.653Z,99850.75
2023-03-31T01:18:35.341Z,99849.22
2023-03-31T01:22:28.442Z,99836.53
2023-03-31T01:26:04.497Z,99839.97
2023-03-31T01:29:21.926Z,99827.13
2023-03-31T01:32:43.135Z,99829.94
2023-03-31T01:36:17.022Z,99834.59
2023-03-31T01:40:10.503Z,99829.69
2023-03-31T01:43:21.459Z,99822.44
2023-03-31T01:46:29.664Z,99818.78
2023-03-31T01:49:40.718Z,99816.00
2023-03-31T01:52:48.586Z,99806.41
2023-03-31T01:56:01.767Z,99817.88
2023-03-31T01:59:12.820Z,99816.56
2023-03-31T02:02:20.937Z,99812.78
2023-03-31T02:05:26.724Z,99804.84
2023-03-31T02:08:33.834Z,99801.53
2023-03-31T02:11:39.035Z,99798.38
2023-03-31T02:14:46.387Z,99800.88
2023-03-31T02:17:54.622Z,99789.72
2023-03-31T02:20:59.812Z,99787.66
2023-03-31T02:24:05.912Z,99776.81
2023-03-31T02:27:13.629Z,99782.22
2023-03-31T02:30:17.653Z,99773.69
2023-03-31T02:33:20.335Z,99766.31
2023-03-31T02:36:23.581Z,99765.44
2023-03-31T02:39:31.388Z,99766.81
2023-03-31T02:42:33.997Z,99770.94
2023-03-31T02:45:46.265Z,99767.00
2023-03-31T02:48:54.343Z,99758.75
2023-03-31T02:52:20.729Z,99760.09
2023-03-31T02:55:53.245Z,99748.59
2023-03-31T02:59:16.881Z,99741.84
2023-03-31T03:02:32.479Z,99736.03
2023-03-31T03:05:45.767Z,99730.63
2023-03-31T03:09:02.824Z,99730.38
2023-03-31T03:12:13.077Z,99732.34
2023-03-31T03:15:19.967Z,99730.28
2023-03-31T03:18:24.071Z,99724.47
2023-03-31T03:21:27.433Z,99728.31
2023-03-31T03:24:30.192Z,99722.88
2023-03-31T03:27:33.138Z,99716.19
2023-03-31T03:30:35.767Z,99709.28
2023-03-31T03:33:39.752Z,99711.03
2023-03-31T03:36:42.321Z,99702.66
2023-03-31T03:39:44.911Z,99699.94
2023-03-31T03:42:47.509Z,99701.66
2023-03-31T03:45:50.251Z,99706.63
2023-03-31T03:48:54.501Z,99699.09
2023-03-31T03:51:57.049Z,99705.41
2023-03-31T03:54:59.646Z,99694.00
2023-03-31T03:58:02.263Z,99688.31
2023-03-31T04:01:04.926Z,99683.66
2023-03-31T04:04:09.054Z,99678.78
2023-03-31T04:07:11.631Z,99681.25
2023-03-31T04:10:14.512Z,99676.47
2023-03-31T04:13:17.199Z,99672.38
2023-03-31T04:16:19.803Z,99661.00
2023-03-31T04:19:25.837Z,99653.78
2023-03-31T04:22:34.898Z,99652.56
2023-03-31T04:25:39.023Z,99637.19
2023-03-31T04:28:46.660Z,99637.03
2023-03-31T04:31:52.512Z,99635.53
2023-03-31T04:35:03.000Z,99639.69
2023-03-31T04:38:05.615Z,99637.19
2023-03-31T04:41:08.404Z,99631.09
2023-03-31T04:44:11.142Z,99626.25
2023-03-31T04:47:13.760Z,99615.91
2023-03-31T04:50:18.055Z,99608.63
2023-03-31T04:53:20.643Z,99612.75
2023-03-31T04:56:23.744Z,99595.72
2023-03-31T04:59:26.372Z,99595.91
2023-03-31T05:02:29.004Z,99584.13
2023-03-31T05:05:33.048Z,99578.09
2023-03-31T05:08:36.053Z,99575.44
2023-03-31T05:11:38.836Z,99577.16
2023-03-31T05:14:41.448Z,99567.47
2023-03-31T05:17:44.068Z,99570.88
2023-03-31T05:20:48.118Z,99571.25
2023-03-31T05:23:50.969Z,99575.06
2023-03-31T05:26:53.577Z,99566.91
2023-03-31T05:29:56.156Z,99560.81
2023-03-31T05:32:58.790Z,99551.59
2023-03-31T05:36:02.797Z,99548.59
2023-03-31T05:39:05.957Z,99538.75
2023-03-31T05:42:08.528Z,99537.75
2023-03-31T05:45:12.362Z,99531.34
2023-03-31T05:48:15.246Z,99532.66
2023-03-31T05:51:19.224Z,99538.53
2023-03-31T05:54:22.681Z,99536.06
2023-03-31T05:57:25.492Z,99527.16
2023-03-31T06:00:28.156Z,99519.56
2023-03-31T06:03:30.825Z,99518.47
2023-03-31T06:06:37.619Z,99514.72
2023-03-31T06:09:40.518Z,99508.25
2023-03-31T06:12:43.078Z,99510.44
2023-03-31T06:15:54.315Z,99506.34
2023-03-31T06:18:56.940Z,99508.63
2023-03-31T06:22:01.519Z,99505.69
2023-03-31T06:25:04.369Z,99512.81
2023-03-31T06:28:07.646Z,99504.69
2023-03-31T06:31:12.513Z,99513.03
2023-03-31T06:34:15.162Z,99507.06
2023-03-31T06:37:19.156Z,99500.56
2023-03-31T06:40:21.789Z,99502.72
2023-03-31T06:43:24.640Z,99493.53
2023-03-31T06:46:27.371Z,99498.56
2023-03-31T06:49:30.013Z,99494.19
2023-03-31T06:52:33.988Z,99488.84
2023-03-31T06:55:36.791Z,99488.72
2023-03-31T06:58:39.382Z,99491.56
2023-03-31T07:01:42.635Z,99489.78
2023-03-31T07:04:45.533Z,99485.47
2023-03-31T07:07:49.454Z,99483.72
2023-03-31T07:10:57.550Z,99487.81
2023-03-31T07:14:00.142Z,99480.72
2023-03-31T07:17:02.705Z,99479.56
2023-03-31T07:20:10.496Z,99482.28
2023-03-31T07:23:14.548Z,99472.44
2023-03-31T07:26:17.239Z,99474.00
2023-03-31T07:29:20.493Z,99469.91
2023-03-31T07:32:23.665Z,99457.66
2023-03-31T07:35:26.959Z,99455.75
2023-03-31T07:38:31.050Z,99451.22
2023-03-31T07:41:33.629Z,99446.59
2023-03-31T07:44:36.360Z,99449.34
2023-03-31T07:47:40.056Z,99450.09
2023-03-31T07:50:42.813Z,99444.34
2023-03-31T07:53:49.177Z,99444.78
2023-03-31T07:56:51.835Z,99448.41
2023-03-31T07:59:54.470Z,99434.38
2023-03-31T08:02:57.039Z,99436.72
2023-03-31T08:05:59.652Z,99430.53
2023-03-31T08:09:05.050Z,99423.06
2023-03-31T08:12:07.944Z,99426.88
2023-03-31T08:15:10.914Z,99414.25
2023-03-31T08:18:13.589Z,99415.41
2023-03-31T08:21:16.235Z,99409.69
2023-03-31T08:24:20.309Z,99405.22
2023-03-31T08:27:22.903Z,99401.50
2023-03-31T08:30:25.478Z,99401.53
2023-03-31T08:33:29.031Z,99406.28
2023-03-31T08:36:31.801Z,99399.47
2023-03-31T08:39:37.158Z,99400.97
2023-03-31T08:42:43.049Z,99408.84
2023-03-31T08:45:48.601Z,99397.47
2023-03-31T08:48:55.290Z,99398.31
2023-03-31T08:52:00.769Z,99394.81
2023-03-31T08:55:08.164Z,99392.88
2023-03-31T08:58:19.717Z,99383.25
2023-03-31T09:01:40.725Z,99376.47
2023-03-31T09:05:15.267Z,99374.13
2023-03-31T09:08:33.436Z,99373.94
2023-03-31T09:11:44.481Z,99370.94
2023-03-31T09:14:52.630Z,99367.97
2023-03-31T09:17:58.734Z,99366.28
2023-03-31T09:21:08.569Z,99362.00
2023-03-31T09:24:17.209Z,99358.53
2023-03-31T09:27:22.390Z,99356.66
2023-03-31T09:30:29.038Z,99347.09
2023-03-31T09:33:32.828Z,99336.97
2023-03-31T09:36:35.603Z,99333.78
2023-03-31T09:39:38.863Z,99331.13
2023-03-31T09:42:42.870Z,99329.50
2023-03-31T09:45:54.717Z,99326.34
2023-03-31T09:49:07.821Z,99323.56
2023-03-31T09:52:21.080Z,99321.13
2023-03-31T09:55:38.945Z,99313.03
2023-03-31T09:58:46.250Z,99310.44
2023-03-31T10:01:51.759Z,99307.44
2023-03-31T10:04:54.511Z,99302.38
2023-03-31T10:08:28.499Z,99302.31
2023-03-31T10:11:31.280Z,99299.88
2023-03-31T10:14:42.886Z,99298.41
2023-03-31T10:17:54.934Z,99292.84
2023-03-31T10:20:59.358Z,99289.31
2023-03-31T10:24:02.584Z,99288.41
2023-03-31T10:27:07.980Z,99282.56
2023-03-31T10:30:13.780Z,99275.19
2023-03-31T10:33:23.090Z,99281.41
2023-03-31T10:36:28.960Z,99276.78
2023-03-31T10:39:33.684Z,99270.78
2023-03-31T10:42:36.552Z,99265.00
2023-03-31T10:45:46.422Z,99266.06
2023-03-31T10:48:49.047Z,99272.56
2023-03-31T10:51:54.560Z,99260.69
2023-03-31T10:55:00.185Z,99258.47
2023-03-31T10:58:13.609Z,99252.09
2023-03-31T11:01:30.883Z,99253.41
2023-03-31T11:04:49.307Z,99256.03
2023-03-31T11:08:02.756Z,99244.16
2023-03-31T11:11:20.446Z,99241.06
2023-03-31T11:14:34.707Z,99232.31
2023-03-31T11:17:53.047Z,99244.78
2023-03-31T11:21:03.550Z,99235.03
2023-03-31T11:24:14.037Z,99243.09
2023-03-31T11:27:35.791Z,99239.69
2023-03-31T11:30:41.382Z,99234.44
2023-03-31T11:33:58.102Z,99228.94
2023-03-31T11:37:23.747Z,99227.50
2023-03-31T11:40:50.114Z,99221.19
2023-03-31T11:43:56.456Z,99217.09
2023-03-31T11:47:02.932Z,99211.03
2023-03-31T11:50:13.335Z,99199.66
2023-03-31T11:53:18.781Z,99205.47
2023-03-31T11:56:23.196Z,99201.81
2023-03-31T11:59:29.991Z,99203.31
2023-03-31T12:02:42.457Z,99194.78
2023-03-31T12:05:50.820Z,99196.34
2023-03-31T12:09:06.415Z,99190.56
2023-03-31T12:12:16.949Z,99189.81
2023-03-31T12:15:24.669Z,99184.75
2023-03-31T12:18:29.202Z,99190.06
2023-03-31T12:21:37.739Z,99183.84
2023-03-31T12:24:40.535Z,99179.22
2023-03-31T12:27:44.960Z,99174.00
2023-03-31T12:30:49.277Z,99179.44
2023-03-31T12:33:57.378Z,99171.19
2023-03-31T12:37:31.771Z,99163.25
2023-03-31T12:40:47.333Z,99161.59
2023-03-31T12:44:11.858Z,99154.28
2023-03-31T12:47:35.898Z,99155.81
2023-03-31T12:50:52.382Z,99151.22
2023-03-31T12:54:09.654Z,99152.47
2023-03-31T12:57:20.664Z,99145.31
2023-03-31T13:00:26.913Z,99142.72
2023-03-31T13:03:46.061Z,99149.00
2023-03-31T13:06:57.098Z,99134.63
2023-03-31T13:10:26.225Z,99130.41
2023-03-31T13:13:29.191Z,99133.50
2023-03-31T13:16:32.739Z,99120.78
2023-03-31T13:19:37.279Z,99114.78
2023-03-31T13:22:43.430Z,99113.56
2023-03-31T13:25:50.283Z,99105.59
2023-03-31T13:29:12.379Z,99107.06
2023-03-31T13:32:24.674Z,99102.22
2023-03-31T13:35:33.955Z,99095.06
2023-03-31T13:38:50.722Z,99098.94
2023-03-31T13:42:04.248Z,99096.63
2023-03-31T13:45:20.335Z,99094.94
2023-03-31T13:48:43.208Z,99091.53
2023-03-31T13:51:57.956Z,99089.72
2023-03-31T13:55:18.098Z,99083.66
2023-03-31T13:59:04.313Z,99083.69
2023-03-31T14:02:47.067Z,99085.28
2023-03-31T14:05:56.838Z,99082.97
2023-03-31T14:09:04.990Z,99080.69
2023-03-31T14:12:21.782Z,99084.44
2023-03-31T14:15:25.768Z,99078.75
2023-03-31T14:18:33.365Z,99073.13
2023-03-31T14:21:43.074Z,99077.25
2023-03-31T14:24:54.054Z,99082.78
2023-03-31T14:28:05.172Z,99076.00
2023-03-31T14:31:20.804Z,99067.47
2023-03-31T14:34:51.538Z,99071.00
2023-03-31T14:37:55.612Z,99065.41
2023-03-31T14:41:01.064Z,99071.06
2023-03-31T14:44:06.223Z,99062.69
2023-03-31T14:47:15.863Z,99058.03
2023-03-31T14:50:20.011Z,99063.84
2023-03-31T14:53:25.863Z,99054.91
2023-03-31T14:56:34.722Z,99062.69
2023-03-31T14:59:37.465Z,99059.72
2023-03-31T15:02:45.247Z,99053.31
2023-03-31T15:05:50.201Z,99059.97
2023-03-31T15:08:57.307Z,99066.13
2023-03-31T15:12:02.172Z,99053.81
2023-03-31T15:15:07.184Z,99061.28
2023-03-31T15:18:13.687Z,99058.38
2023-03-31T15:21:22.576Z,99056.91
2023-03-31T15:24:25.527Z,99053.47
2023-03-31T15:31:09.690Z,99050.78
2023-03-31T15:34:18.644Z,99052.34
2023-03-31T15:37:25.059Z,99055.72
2023-03-31T15:40:30.063Z,99051.41
2023-03-31T15:43:43.267Z,99050.91
2023-03-31T15:47:00.284Z,99047.75
2023-03-31T15:50:13.141Z,99050.66
2023-03-31T15:53:29.857Z,99053.78
2023-03-31T15:56:38.087Z,99044.56
2023-03-31T15:59:55.429Z,99051.34
2023-03-31T16:03:00.269Z,99045.00
2023-03-31T16:06:09.066Z,99050.34
2023-03-31T16:09:15.244Z,99049.66
2023-03-31T16:12:24.182Z,99055.13
2023-03-31T16:15:33.140Z,99052.06
2023-03-31T16:18:39.110Z,99049.91
2023-03-31T16:21:47.420Z,99057.97
2023-03-31T16:24:50.502Z,99054.63
2023-03-31T16:27:56.023Z,99052.81
2023-03-31T16:31:01.753Z,99050.75
2023-03-31T16:34:06.889Z,99060.25
2023-03-31T16:37:11.568Z,99065.41
2023-03-31T16:40:14.403Z,99064.28
2023-03-31T16:43:18.616Z,99063.19
2023-03-31T16:46:21.596Z,99064.91
2023-03-31T16:49:24.189Z,99062.84
2023-03-31T16:52:28.183Z,99064.66
2023-03-31T16:55:32.285Z,99064.91
2023-03-31T16:58:35.978Z,99063.81
2023-03-31T17:01:38.693Z,99062.13
2023-03-31T17:04:41.476Z,99064.03
2023-03-31T17:07:47.161Z,99066.47
2023-03-31T17:10:53.919Z,99067.09
2023-03-31T17:13:56.833Z,99074.59
2023-03-31T17:16:59.450Z,99068.53
2023-03-31T17:20:02.374Z,99080.13
2023-03-31T17:23:06.592Z,99075.19
2023-03-31T17:26:10.647Z,99072.78
2023-03-31T17:29:15.373Z,99077.22
2023-03-31T17:32:19.077Z,99077.94
2023-03-31T17:35:22.318Z,99081.59
2023-03-31T17:38:26.569Z,99080.75
2023-03-31T17:41:30.326Z,99080.88
2023-03-31T17:44:32.944Z,99089.06
2023-03-31T17:47:35.989Z,99094.84
2023-03-31T17:50:38.998Z,99096.81
2023-03-31T17:53:44.890Z,99092.88
2023-03-31T17:56:50.069Z,99101.00
2023-03-31T17:59:52.852Z,99095.16
2023-03-31T18:02:55.834Z,99104.13
2023-03-31T18:06:03.196Z,99102.63
2023-03-31T18:09:08.513Z,99103.28
2023-03-31T18:12:11.137Z,99106.41
2023-03-31T18:15:13.761Z,99114.50
2023-03-31T18:18:16.589Z,99113.88
2023-03-31T18:21:19.237Z,99112.91
2023-03-31T18:24:23.848Z,99120.59
2023-03-31T18:27:26.489Z,99120.81
2023-03-31T18:30:29.262Z,99118.28
2023-03-31T18:33:31.906Z,99122.53
2023-03-31T18:36:35.784Z,99127.09
2023-03-31T18:39:39.888Z,99123.38
2023-03-31T18:42:42.517Z,99121.69
2023-03-31T18:45:45.321Z,99131.47
2023-03-31T18:48:47.991Z,99133.84
2023-03-31T18:51:51.592Z,99129.63
2023-03-31T18:54:55.919Z,99126.38
2023-03-31T18:57:58.594Z,99136.84
2023-03-31T19:01:02.225Z,99130.69
2023-03-31T19:04:04.893Z,99136.69
2023-03-31T19:07:07.475Z,99128.13
2023-03-31T19:10:12.096Z,99132.53
2023-03-31T19:13:16.777Z,99141.63
2023-03-31T19:16:19.457Z,99132.59
2023-03-31T19:19:22.527Z,99141.25
2023-03-31T19:22:27.611Z,99140.06
2023-03-31T19:25:31.984Z,99141.75
2023-03-31T19:28:34.837Z,99141.47
2023-03-31T19:31:40.238Z,99143.19
2023-03-31T19:34:43.636Z,99141.75
2023-03-31T19:37:46.284Z,99144.41
2023-03-31T19:40:50.965Z,99150.97
2023-03-31T19:43:53.553Z,99140.06
2023-03-31T19:46:58.308Z,99143.19
2023-03-31T19:50:00.994Z,99146.34
2023-03-31T19:53:03.663Z,99147.31
2023-03-31T19:56:09.448Z,99138.38
2023-03-31T19:59:12.094Z,99141.03
2023-03-31T20:02:14.809Z,99139.78
2023-03-31T20:05:19.578Z,99142.66
2023-03-31T20:08:22.419Z,99137.34
2023-03-31T20:11:27.519Z,99144.13
2023-03-31T20:14:30.252Z,99137.78
2023-03-31T20:17:32.885Z,99147.53
2023-03-31T20:20:35.815Z,99147.31
2023-03-31T20:23:38.861Z,99143.28
2023-03-31T20:26:42.938Z,99146.69
2023-03-31T20:29:45.657Z,99148.88
2023-03-31T20:32:48.403Z,99149.47
2023-03-31T20:36:00.706Z,99143.91
2023-03-31T20:39:05.535Z,99147.06
2023-03-31T20:42:10.764Z,99151.44
2023-03-31T20:45:13.461Z,99154.72
2023-03-31T20:48:16.498Z,99155.16
2023-03-31T20:51:21.446Z,99152.63
2023-03-31T20:54:24.049Z,99152.97
2023-03-31T20:57:28.001Z,99151.59
2023-03-31T21:00:30.609Z,99153.06
2023-03-31T21:03:33.334Z,99149.66
2023-03-31T21:06:39.129Z,99154.19
2023-03-31T21:09:42.077Z,99152.25
2023-03-31T21:12:46.359Z,99157.13
2023-03-31T21:15:50.307Z,99156.47
2023-03-31T21:18:54.745Z,99165.06
2023-03-31T21:21:57.367Z,99156.91
2023-03-31T21:24:59.948Z,99148.41
2023-03-31T21:28:04.306Z,99157.13
2023-03-31T21:31:08.966Z,99152.03
2023-03-31T21:34:11.698Z,99153.63
2023-03-31T21:37:14.346Z,99159.50
2023-03-31T21:40:17.575Z,99146.50
2023-03-31T21:43:21.534Z,99152.19
2023-03-31T21:46:26.447Z,99151.88
2023-03-31T21:49:29.645Z,99155.75
2023-03-31T21:52:33.248Z,99161.06
2023-03-31T21:55:38.449Z,99154.78
2023-03-31T21:58:42.415Z,99154.97
2023-03-31T22:01:45.161Z,99159.44
2023-03-31T22:04:47.927Z,99157.88
2023-03-31T22:07:50.612Z,99160.63
2023-03-31T22:10:54.081Z,99165.50
2023-03-31T22:13:58.094Z,99160.09
2023-03-31T22:17:00.900Z,99164.16
2023-03-31T22:20:04.934Z,99161.38
2023-03-31T22:23:07.935Z,99161.72
2023-03-31T22:26:10.543Z,99163.06
2023-03-31T22:29:17.400Z,99163.91
2023-03-31T22:32:21.152Z,99166.72
2023-03-31T22:35:24.409Z,99167.03
2023-03-31T22:38:27.114Z,99172.09
2023-03-31T22:41:29.720Z,99175.00
2023-03-31T22:44:35.388Z,99172.84
2023-03-31T22:47:38.208Z,99173.63
2023-03-31T22:50:41.186Z,99172.09
2023-03-31T22:53:43.970Z,99172.53
2023-03-31T22:56:46.607Z,99174.06
2023-03-31T22:59:50.571Z,99171.59
2023-03-31T23:02:53.564Z,99173.06
2023-03-31T23:05:56.271Z,99176.03
2023-03-31T23:08:59.242Z,99182.97
2023-03-31T23:12:01.828Z,99187.09
2023-03-31T23:15:06.392Z,99184.34
2023-03-31T23:18:08.976Z,99184.88
2023-03-31T23:21:11.841Z,99185.81
2023-03-31T23:24:14.426Z,99183.91
2023-03-31T23:27:17.587Z,99190.09
2023-03-31T23:30:21.560Z,99190.28
2023-03-31T23:33:24.343Z,99189.31
2023-03-31T23:36:27.515Z,99192.75
2023-03-31T23:39:30.179Z,99190.16
2023-03-31T23:42:32.777Z,99198.78
2023-03-31T23:45:36.742Z,99195.41
2023-03-31T23:48:40.604Z,99198.25
2023-03-31T23:51:43.201Z,99190.41
2023-03-31T23:54:45.810Z,99191.13
2023-03-31T23:57:48.429Z,99184.38
